Eurodam — PHOS — position and weather

sailwx.info

Track history (hours):
 
Tides and Currents Weather Stations Pressure Air Temp Water Temp Dewpoint Dewpoint Depression Visibility Wind Speed Wind Dir Waves Ship Positions

Eurodam (Netherlands)

Last reported at 2019-Jun-16 13:00 UTC. Time now 2019-Jun-16 14:37 UTC.
Position N 49°42' W 127°48'.

Length 287 m; draft 8 m.

Type: Ship. MMSI: 245206000.

Wind from 300 at 14 knots

Barometer 1018.1 mb
Air temperature 13.0 ° C
Visibility: greater than 2.2 NM
Dewpoint 10.1 ° C
Water temperature 11.3 ° C

Date/timePositionNaut miles runAvg speedWind from/ knotsBaromVisibWave heightAir tempDewpointWater temp
2019-Jun-16 13:00N 49°42' W 127°48'3919.7 300 / 141018.1 2.2 13.010.111.3
2019-Jun-16 11:00N 49°18' W 127°00'1418.2 290 / 131017.8 0.5 12.510.611.7
2019-Jun-16 10:12N 49°08' W 126°44'420.6
2019-Jun-16 10:01N 49°06' W 126°39'1020.6
2019-Jun-16 09:30N 49°01' W 126°25'1020.4
2019-Jun-16 09:01N 48°57' W 126°11'1020.1
2019-Jun-16 08:30N 48°51' W 125°58'1020.3
2019-Jun-16 08:00N 48°46' W 125°45'1020.6
2019-Jun-16 07:30N 48°43' W 125°30'1020.6
2019-Jun-16 07:00N 48°39' W 125°15'1121.3
2019-Jun-16 06:30N 48°35' W 125°01'1121.2
2019-Jun-16 06:00N 48°31' W 124°46'3170.4
2019-Jun-16 06:00N 48°30' W 124°42'816.5 290 / 151018.1 5.4 12.011.010.0
2019-Jun-16 05:30N 48°27' W 124°31'1121.1
2019-Jun-16 05:01N 48°23' W 124°16'1020.9
2019-Jun-16 04:30N 48°19' W 124°02'1120.9
2019-Jun-16 03:58N 48°16' W 123°45'1520.6
2019-Jun-16 03:14N 48°12' W 123°23'312.4
2019-Jun-16 02:59N 48°09' W 123°21'1217.6
2019-Jun-16 02:20N 48°13' W 123°05'921.1
2019-Jun-16 01:55N 48°12' W 122°52'921.1
2019-Jun-16 01:30N 48°08' W 122°40'1020.7
2019-Jun-16 01:01N 47°58' W 122°35'1020.7
2019-Jun-16 00:31N 47°49' W 122°27'1020.3
2019-Jun-16 00:00N 47°39' W 122°27'3 6.4
2019-Jun-15 23:30N 47°38' W 122°23'0 0.0
2019-Jun-15 22:59N 47°38' W 122°23'0 0.0
2019-Jun-15 22:29N 47°38' W 122°23'0 0.0
2019-Jun-15 21:59N 47°38' W 122°23'0 0.0
2019-Jun-15 21:29N 47°38' W 122°23'0 0.0
2019-Jun-15 20:56N 47°38' W 122°23'0 0.0
2019-Jun-15 20:29N 47°38' W 122°23'0 0.0
2019-Jun-15 19:56N 47°38' W 122°23'0 0.0
2019-Jun-15 19:11N 47°38' W 122°23'0 0.0
2019-Jun-15 18:59N 47°38' W 122°23'0 0.0
2019-Jun-15 18:29N 47°38' W 122°23'0 0.0
2019-Jun-15 17:56N 47°38' W 122°23'0 0.0
2019-Jun-15 17:29N 47°38' W 122°23'0 0.0
2019-Jun-15 16:56N 47°38' W 122°23'0 0.0
2019-Jun-15 16:29N 47°38' W 122°23'0 0.0
2019-Jun-15 15:59N 47°38' W 122°23'0 0.0
2019-Jun-15 15:26N 47°38' W 122°23'0 0.0
2019-Jun-15 14:56N 47°38' W 122°23'0 0.0
2019-Jun-15 14:29N 47°38' W 122°23'0 0.0
2019-Jun-15 14:00N 47°38' W 122°23'0 0.0
2019-Jun-15 13:20N 47°38' W 122°23'0 0.0
2019-Jun-15 12:54N 47°38' W 122°23'0 0.0
2019-Jun-15 12:31N 47°38' W 122°23'2 4.8
2019-Jun-15 12:00N 47°38' W 122°27'511.1
2019-Jun-15 11:31N 47°43' W 122°27'816.6
2019-Jun-15 11:01N 47°51' W 122°28'5274.7
2019-Jun-15 11:00N 47°48' W 122°24'1325.8 050 / 51017.710.8 11.910.615.3
2019-Jun-15 10:30N 47°58' W 122°35'916.9
2019-Jun-15 09:59N 48°06' W 122°40'918.8
2019-Jun-15 09:30N 48°11' W 122°52'918.4
2019-Jun-15 09:00N 48°12' W 123°05'918.4
2019-Jun-15 08:30N 48°10' W 123°19'611.7
2019-Jun-15 08:00N 48°11' W 123°28'816.8
2019-Jun-15 07:30N 48°20' W 123°27'5 9.8
2019-Jun-15 07:00N 48°24' W 123°24'1 1.9
2019-Jun-15 06:29N 48°25' W 123°23'0 0.0
2019-Jun-15 05:59N 48°25' W 123°23'0 0.0
2019-Jun-15 05:29N 48°25' W 123°23'0 0.0
2019-Jun-15 04:59N 48°25' W 123°23'0 0.0
2019-Jun-15 04:29N 48°25' W 123°23'0 0.0
2019-Jun-15 03:59N 48°25' W 123°23'0 0.0
2019-Jun-15 03:29N 48°25' W 123°23'0 0.0
2019-Jun-15 02:59N 48°25' W 123°23'0 0.0
2019-Jun-15 02:29N 48°25' W 123°23'0 0.0
2019-Jun-15 02:00N 48°25' W 123°23'2 3.7
2019-Jun-15 01:30N 48°24' W 123°25'714.3
2019-Jun-15 00:59N 48°16' W 123°26'1120.3
2019-Jun-15 00:26N 48°14' W 123°43'920.3
2019-Jun-15 00:00N 48°14' W 123°56'1019.2
2019-Jun-14 23:30N 48°18' W 124°09'1019.5
2019-Jun-14 23:00N 48°22' W 124°23'1019.8
2019-Jun-14 22:30N 48°26' W 124°36'1019.7
2019-Jun-14 22:00N 48°29' W 124°50'1020.9
2019-Jun-14 21:30N 48°29' W 125°06'1020.3
2019-Jun-14 21:00N 48°32' W 125°21'1021.0
2019-Jun-14 20:30N 48°37' W 125°34'1121.0
2019-Jun-14 20:00N 48°43' W 125°48'1121.1
2019-Jun-14 19:30N 48°48' W 126°02'1121.0
2019-Jun-14 19:00N 48°54' W 126°14'1021.0
2019-Jun-14 18:30N 49°01' W 126°27'1121.1
2019-Jun-14 18:00N 49°07' W 126°40'1221.1
2019-Jun-14 17:27N 49°14' W 126°54'7120.5
2019-Jun-14 14:00N 50°00' W 128°18'1830.4 320 / 201017.910.8 11.5 6.815.3
2019-Jun-14 13:25N 50°17' W 128°26'922.6
2019-Jun-14 13:00N 50°25' W 128°32'1122.4
2019-Jun-14 12:30N 50°36' W 128°35'1020.9
2019-Jun-14 12:00N 50°45' W 128°43'1121.3
2019-Jun-14 11:30N 50°55' W 128°50'1121.1
2019-Jun-14 11:01N 51°04' W 128°58'5306.7
2019-Jun-14 11:00N 51°00' W 128°54'1632.1 310 / 141018.110.8 11.510.615.2
2019-Jun-14 10:31N 51°14' W 129°06'1121.1
2019-Jun-14 10:00N 51°23' W 129°13'1121.7
2019-Jun-14 09:30N 51°33' W 129°21'1121.8
2019-Jun-14 09:00N 51°42' W 129°29'1122.4
2019-Jun-14 08:31N 51°53' W 129°37'1122.3
2019-Jun-14 08:00N 52°03' W 129°45'1122.4
2019-Jun-14 07:30N 52°13' W 129°53'1822.1
2019-Jun-14 06:42N 52°29' W 130°05'422.0
2019-Jun-14 06:30N 52°33' W 130°08'1621.8
2019-Jun-14 05:47N 52°47' W 130°19'2321.3
2019-Jun-14 04:43N 53°08' W 130°35'521.3
2019-Jun-14 04:30N 53°12' W 130°38'1121.4
2019-Jun-14 04:01N 53°21' W 130°45'1121.1
2019-Jun-14 03:30N 53°31' W 130°51'1121.5
2019-Jun-14 03:00N 53°42' W 130°54'1121.9
2019-Jun-14 02:30N 53°53' W 130°57'1122.2
2019-Jun-14 02:00N 54°04' W 130°60'1021.0
2019-Jun-14 01:30N 54°14' W 131°04'815.9
2019-Jun-14 01:01N 54°21' W 131°08'815.3
2019-Jun-14 00:30N 54°28' W 131°16'815.1
2019-Jun-14 00:00N 54°34' W 131°23'815.2
2019-Jun-13 23:30N 54°41' W 131°30'1017.7
2019-Jun-13 22:55N 54°49' W 131°39'43 4.0
2019-Jun-13 12:00N 55°30' W 132°06'218 6.7 350 / 161014.310.8 11.3 9.014.7
2019-Jun-12 03:26N 58°09' W 136°38'1112.3
2019-Jun-12 02:34N 58°17' W 136°24'111.7
2019-Jun-12 02:26N 58°18' W 136°21'1112.0
2019-Jun-12 01:30N 58°21' W 136°01'510.0
2019-Jun-12 01:01N 58°26' W 135°59'5 9.3
2019-Jun-12 00:30N 58°30' W 136°04'713.2
2019-Jun-12 00:00N 58°37' W 136°03'714.7
2019-Jun-11 23:31N 58°43' W 136°10'816.7
2019-Jun-11 23:00N 58°47' W 136°24'9 1.7
2019-Jun-11 17:51N 58°53' W 136°37'10 7.6
2019-Jun-11 16:35N 58°47' W 136°23'212.1
2019-Jun-11 16:28N 58°46' W 136°20'818.3
2019-Jun-11 16:00N 58°40' W 136°10'816.9
2019-Jun-11 15:30N 58°32' W 136°04'713.5
2019-Jun-11 15:00N 58°26' W 135°58'3215.2
2019-Jun-11 15:00N 58°24' W 135°54'5 9.5 080 / 51016.2 2.2 11.610.211.7
2019-Jun-11 14:30N 58°19' W 135°55'612.8
2019-Jun-11 14:00N 58°18' W 135°43'6540.6
2019-Jun-11 14:00N 58°12' W 135°42'713.8 130 / 131016.3 5.4 12.710.912.5
2019-Jun-11 13:29N 58°15' W 135°30'714.5
2019-Jun-11 13:00N 58°13' W 135°18'25 6.3
2019-Jun-11 09:00N 58°12' W 134°30'73 4.0 110 / 141017.3 0.5 11.510.710.7
2019-Jun-10 15:00N 57°00' W 134°12'1919.2 090 / 131019.4 0.5 9.7 9.412.8
2019-Jun-10 14:00N 56°42' W 134°24'1818.0 350 / 101019.7 0.3 9.1 8.8 8.5
2019-Jun-10 13:00N 56°24' W 134°24'2424.0 100 / 131019.5 0.3 10.0 9.7 9.0
2019-Jun-10 12:00N 56°00' W 134°24'32619.2 150 / 151018.9 0.3 10.2 9.9 9.1
2019-Jun-09 19:00N 51°12' W 130°06'6421.2 170 / 251023.3 5.4 13.211.411.2
2019-Jun-09 16:00N 50°24' W 129°00'514.5 150 / 181027.2 5.4 11.4 9.311.5
2019-Jun-09 15:41N 50°23' W 128°53'3923.2
2019-Jun-09 14:00N 49°54' W 128°12'6665.8 200 / 161028.7 5.4 10.8 8.911.7
2019-Jun-09 13:00N 49°12' W 126°54'0 0.0 210 / 81028.6 2.2 11.2 8.614.3
2019-Jun-09 11:00N 49°12' W 126°54'4 9.8 290 / 81029.2 5.4 11.8 9.914.6
2019-Jun-09 10:35N 49°11' W 126°48'521.4
2019-Jun-09 10:20N 49°08' W 126°42'721.5
2019-Jun-09 10:00N 49°04' W 126°33'1121.2
2019-Jun-09 09:30N 48°59' W 126°19'1020.8
2019-Jun-09 09:01N 48°53' W 126°05'1020.5
2019-Jun-09 08:31N 48°48' W 125°52'1020.7
2019-Jun-09 08:01N 48°44' W 125°37'1121.1
2019-Jun-09 07:31N 48°41' W 125°22'1121.4
2019-Jun-09 07:01N 48°37' W 125°07'1121.6
2019-Jun-09 06:31N 48°33' W 124°52'1121.2
2019-Jun-09 06:01N 48°29' W 124°37'1020.9
2019-Jun-09 05:31N 48°25' W 124°23'1020.4
2019-Jun-09 05:01N 48°21' W 124°08'2019.6
2019-Jun-09 04:00N 48°16' W 123°40'2114.6
2019-Jun-09 02:35N 48°12' W 123°09'1219.5
2019-Jun-09 01:58N 48°12' W 122°51'817.0
2019-Jun-09 01:30N 48°08' W 122°41'918.4
2019-Jun-09 01:00N 47°59' W 122°35'1019.3
2019-Jun-09 00:30N 47°51' W 122°28'1019.9
2019-Jun-09 00:00N 47°41' W 122°27'5 9.4
2019-Jun-08 23:31N 47°37' W 122°23'0 0.6
2019-Jun-08 22:58N 47°38' W 122°23'0 0.0
2019-Jun-08 22:30N 47°38' W 122°23'0 0.0
2019-Jun-08 21:57N 47°38' W 122°23'0 0.0
2019-Jun-08 21:30N 47°38' W 122°23'0 0.0
2019-Jun-08 20:45N 47°38' W 122°23'0 0.0
2019-Jun-08 20:27N 47°38' W 122°23'0 0.0
2019-Jun-08 19:53N 47°38' W 122°23'0 0.0
2019-Jun-08 19:29N 47°38' W 122°23'0 0.0
2019-Jun-08 18:57N 47°38' W 122°23'0 0.0
2019-Jun-08 18:26N 47°38' W 122°23'0 0.0
2019-Jun-08 17:53N 47°38' W 122°23'0 0.0
2019-Jun-08 17:29N 47°38' W 122°23'0 0.0
2019-Jun-08 16:59N 47°38' W 122°23'0 0.0
2019-Jun-08 16:29N 47°38' W 122°23'4 7.7
2019-Jun-08 16:00N 47°36' W 122°18'424.4 240 / 71027.710.8 16.410.511.3
2019-Jun-08 15:50N 47°38' W 122°23'0 0.0
2019-Jun-08 15:29N 47°38' W 122°23'0 0.0
2019-Jun-08 14:59N 47°38' W 122°23'0 0.0
2019-Jun-08 14:29N 47°38' W 122°23'0 0.0
2019-Jun-08 13:56N 47°38' W 122°23'0 0.0
2019-Jun-08 13:27N 47°38' W 122°23'0 0.0
2019-Jun-08 12:57N 47°38' W 122°23'0 0.1
2019-Jun-08 12:30N 47°38' W 122°23'2 4.2
2019-Jun-08 12:01N 47°38' W 122°26'510.7
2019-Jun-08 11:30N 47°43' W 122°28'713.2
2019-Jun-08 11:01N 47°49' W 122°28'714.7
2019-Jun-08 10:30N 47°56' W 122°32'815.3
2019-Jun-08 10:00N 48°02' W 122°39'1014.5
2019-Jun-08 09:19N 48°11' W 122°47'816.3
2019-Jun-08 08:50N 48°12' W 122°59'616.5
2019-Jun-08 08:29N 48°12' W 123°08'916.3
2019-Jun-08 07:57N 48°10' W 123°21'611.3
2019-Jun-08 07:27N 48°12' W 123°29'918.6
2019-Jun-08 06:58N 48°20' W 123°26'4 8.6
2019-Jun-08 06:30N 48°24' W 123°24'1 1.9
2019-Jun-08 06:00N 48°25' W 123°23'0 0.0
2019-Jun-08 05:30N 48°25' W 123°23'0 0.0
2019-Jun-08 05:00N 48°25' W 123°23'0 0.0
2019-Jun-08 04:30N 48°25' W 123°23'0 0.0
2019-Jun-08 04:00N 48°25' W 123°23'0 0.0
2019-Jun-08 03:30N 48°25' W 123°23'0 0.0
2019-Jun-08 03:00N 48°25' W 123°23'0 0.0
2019-Jun-08 02:30N 48°25' W 123°23'0 0.0
2019-Jun-08 01:58N 48°25' W 123°23'0 0.0
2019-Jun-08 01:28N 48°25' W 123°23'0 0.0
2019-Jun-08 01:00N 48°25' W 123°23'3 6.8
2019-Jun-08 00:30N 48°22' W 123°24'916.9
2019-Jun-08 00:00N 48°14' W 123°29'1122.2
2019-Jun-07 23:30N 48°14' W 123°46'1121.5
2019-Jun-07 22:59N 48°16' W 124°02'1122.1
2019-Jun-07 22:30N 48°20' W 124°17'1021.0
2019-Jun-07 22:00N 48°25' W 124°31'1019.7
2019-Jun-07 21:31N 48°29' W 124°44'1019.3
2019-Jun-07 21:01N 48°29' W 124°59'918.8
2019-Jun-07 20:30N 48°30' W 125°13'1020.7
2019-Jun-07 20:00N 48°35' W 125°27'1121.3
2019-Jun-07 19:30N 48°40' W 125°41'1020.9
2019-Jun-07 19:01N 48°46' W 125°54'1020.6
2019-Jun-07 18:30N 48°51' W 126°08'1020.6
2019-Jun-07 18:01N 48°57' W 126°20'1020.8
2019-Jun-07 17:31N 49°04' W 126°33'1121.0
2019-Jun-07 17:00N 49°10' W 126°46'6120.4
2019-Jun-07 14:00N 49°48' W 128°00'3225.7 330 / 111015.610.8 10.8 7.815.8
2019-Jun-07 12:46N 50°15' W 128°26'621.6
2019-Jun-07 12:30N 50°20' W 128°29'1121.3
2019-Jun-07 12:00N 50°30' W 128°34'7519.6
2019-Jun-07 12:00N 50°24' W 128°30'1736.0 300 / 41015.110.8 9.5 8.114.6
2019-Jun-07 11:30N 50°40' W 128°40'1122.1
2019-Jun-07 11:00N 50°50' W 128°46'4241.1
2019-Jun-07 11:00N 50°48' W 128°42'1530.0 050 / 41014.810.8 10.3 7.515.5
2019-Jun-07 10:30N 51°00' W 128°55'1121.8
2019-Jun-07 10:00N 51°10' W 129°03'1121.1
2019-Jun-07 09:30N 51°19' W 129°10'1021.0
2019-Jun-07 09:00N 51°29' W 129°18'6379.8
2019-Jun-07 09:00N 51°24' W 129°12'1633.3 100 / 51014.510.8 10.5 7.4 9.5
2019-Jun-07 08:30N 51°38' W 129°26'1121.1
2019-Jun-07 08:00N 51°47' W 129°33'1121.5
2019-Jun-07 07:30N 51°57' W 129°41'1121.7
2019-Jun-07 06:58N 52°07' W 129°48'1022.2
2019-Jun-07 06:30N 52°17' W 129°56'5622.0
2019-Jun-07 03:57N 53°08' W 130°35'1022.2
2019-Jun-07 03:29N 53°17' W 130°42'1122.0
2019-Jun-07 03:00N 53°27' W 130°49'1122.0
2019-Jun-07 02:30N 53°38' W 130°54'1121.7
2019-Jun-07 02:01N 53°48' W 130°58'1121.2
2019-Jun-07 01:30N 53°58' W 131°01'1121.7
2019-Jun-07 01:00N 54°09' W 131°01'1121.7
2019-Jun-07 00:30N 54°20' W 131°07'1122.3
2019-Jun-07 00:00N 54°29' W 131°17'1122.4
2019-Jun-06 23:30N 54°39' W 131°27'1122.7
2019-Jun-06 23:00N 54°48' W 131°38'1121.4
2019-Jun-06 22:30N 54°59' W 131°41'  
Track history (hours):
 
Tides and Currents Weather Stations Pressure Air Temp Water Temp Dewpoint Dewpoint Depression Visibility Wind Speed Wind Dir Waves Ship Positions

Eurodam (Netherlands)

Last reported at 2019-Jun-16 13:00 UTC. Time now 2019-Jun-16 14:37 UTC.
Position N 49°42' W 127°48'.

Length 287 m; draft 8 m.

Type: Ship. MMSI: 245206000.

Wind from 300 at 14 knots

Barometer 1018.1 mb
Air temperature 13.0 ° C
Visibility: greater than 2.2 NM
Dewpoint 10.1 ° C
Water temperature 11.3 ° C

Date/timePositionNaut miles runAvg speedWind from/ knotsBaromVisibWave heightAir tempDewpointWater temp
2019-Jun-16 13:00N 49°42' W 127°48'3919.7 300 / 141018.1 2.2 13.010.111.3
2019-Jun-16 11:00N 49°18' W 127°00'1418.2 290 / 131017.8 0.5 12.510.611.7
2019-Jun-16 10:12N 49°08' W 126°44'420.6
2019-Jun-16 10:01N 49°06' W 126°39'1020.6
2019-Jun-16 09:30N 49°01' W 126°25'1020.4
2019-Jun-16 09:01N 48°57' W 126°11'1020.1
2019-Jun-16 08:30N 48°51' W 125°58'1020.3
2019-Jun-16 08:00N 48°46' W 125°45'1020.6
2019-Jun-16 07:30N 48°43' W 125°30'1020.6
2019-Jun-16 07:00N 48°39' W 125°15'1121.3
2019-Jun-16 06:30N 48°35' W 125°01'1121.2
2019-Jun-16 06:00N 48°31' W 124°46'3170.4
2019-Jun-16 06:00N 48°30' W 124°42'816.5 290 / 151018.1 5.4 12.011.010.0
2019-Jun-16 05:30N 48°27' W 124°31'1121.1
2019-Jun-16 05:01N 48°23' W 124°16'1020.9
2019-Jun-16 04:30N 48°19' W 124°02'1120.9
2019-Jun-16 03:58N 48°16' W 123°45'1520.6
2019-Jun-16 03:14N 48°12' W 123°23'312.4
2019-Jun-16 02:59N 48°09' W 123°21'1217.6
2019-Jun-16 02:20N 48°13' W 123°05'921.1
2019-Jun-16 01:55N 48°12' W 122°52'921.1
2019-Jun-16 01:30N 48°08' W 122°40'1020.7
2019-Jun-16 01:01N 47°58' W 122°35'1020.7
2019-Jun-16 00:31N 47°49' W 122°27'1020.3
2019-Jun-16 00:00N 47°39' W 122°27'3 6.4
2019-Jun-15 23:30N 47°38' W 122°23'0 0.0
2019-Jun-15 22:59N 47°38' W 122°23'0 0.0
2019-Jun-15 22:29N 47°38' W 122°23'0 0.0
2019-Jun-15 21:59N 47°38' W 122°23'0 0.0
2019-Jun-15 21:29N 47°38' W 122°23'0 0.0
2019-Jun-15 20:56N 47°38' W 122°23'0 0.0
2019-Jun-15 20:29N 47°38' W 122°23'0 0.0
2019-Jun-15 19:56N 47°38' W 122°23'0 0.0
2019-Jun-15 19:11N 47°38' W 122°23'0 0.0
2019-Jun-15 18:59N 47°38' W 122°23'0 0.0
2019-Jun-15 18:29N 47°38' W 122°23'0 0.0
2019-Jun-15 17:56N 47°38' W 122°23'0 0.0
2019-Jun-15 17:29N 47°38' W 122°23'0 0.0
2019-Jun-15 16:56N 47°38' W 122°23'0 0.0
2019-Jun-15 16:29N 47°38' W 122°23'0 0.0
2019-Jun-15 15:59N 47°38' W 122°23'0 0.0
2019-Jun-15 15:26N 47°38' W 122°23'0 0.0
2019-Jun-15 14:56N 47°38' W 122°23'0 0.0
2019-Jun-15 14:29N 47°38' W 122°23'0 0.0
2019-Jun-15 14:00N 47°38' W 122°23'0 0.0
2019-Jun-15 13:20N 47°38' W 122°23'0 0.0
2019-Jun-15 12:54N 47°38' W 122°23'0 0.0
2019-Jun-15 12:31N 47°38' W 122°23'2 4.8
2019-Jun-15 12:00N 47°38' W 122°27'511.1
2019-Jun-15 11:31N 47°43' W 122°27'816.6
2019-Jun-15 11:01N 47°51' W 122°28'5274.7
2019-Jun-15 11:00N 47°48' W 122°24'1325.8 050 / 51017.710.8 11.910.615.3
2019-Jun-15 10:30N 47°58' W 122°35'916.9
2019-Jun-15 09:59N 48°06' W 122°40'918.8
2019-Jun-15 09:30N 48°11' W 122°52'918.4
2019-Jun-15 09:00N 48°12' W 123°05'918.4
2019-Jun-15 08:30N 48°10' W 123°19'611.7
2019-Jun-15 08:00N 48°11' W 123°28'816.8
2019-Jun-15 07:30N 48°20' W 123°27'5 9.8
2019-Jun-15 07:00N 48°24' W 123°24'1 1.9
2019-Jun-15 06:29N 48°25' W 123°23'0 0.0
2019-Jun-15 05:59N 48°25' W 123°23'0 0.0
2019-Jun-15 05:29N 48°25' W 123°23'0 0.0
2019-Jun-15 04:59N 48°25' W 123°23'0 0.0
2019-Jun-15 04:29N 48°25' W 123°23'0 0.0
2019-Jun-15 03:59N 48°25' W 123°23'0 0.0
2019-Jun-15 03:29N 48°25' W 123°23'0 0.0
2019-Jun-15 02:59N 48°25' W 123°23'0 0.0
2019-Jun-15 02:29N 48°25' W 123°23'0 0.0
2019-Jun-15 02:00N 48°25' W 123°23'2 3.7
2019-Jun-15 01:30N 48°24' W 123°25'714.3
2019-Jun-15 00:59N 48°16' W 123°26'1120.3
2019-Jun-15 00:26N 48°14' W 123°43'920.3
2019-Jun-15 00:00N 48°14' W 123°56'1019.2
2019-Jun-14 23:30N 48°18' W 124°09'1019.5
2019-Jun-14 23:00N 48°22' W 124°23'1019.8
2019-Jun-14 22:30N 48°26' W 124°36'1019.7
2019-Jun-14 22:00N 48°29' W 124°50'1020.9
2019-Jun-14 21:30N 48°29' W 125°06'1020.3
2019-Jun-14 21:00N 48°32' W 125°21'1021.0
2019-Jun-14 20:30N 48°37' W 125°34'1121.0
2019-Jun-14 20:00N 48°43' W 125°48'1121.1
2019-Jun-14 19:30N 48°48' W 126°02'1121.0
2019-Jun-14 19:00N 48°54' W 126°14'1021.0
2019-Jun-14 18:30N 49°01' W 126°27'1121.1
2019-Jun-14 18:00N 49°07' W 126°40'1221.1
2019-Jun-14 17:27N 49°14' W 126°54'7120.5
2019-Jun-14 14:00N 50°00' W 128°18'1830.4 320 / 201017.910.8 11.5 6.815.3
2019-Jun-14 13:25N 50°17' W 128°26'922.6
2019-Jun-14 13:00N 50°25' W 128°32'1122.4
2019-Jun-14 12:30N 50°36' W 128°35'1020.9
2019-Jun-14 12:00N 50°45' W 128°43'1121.3
2019-Jun-14 11:30N 50°55' W 128°50'1121.1
2019-Jun-14 11:01N 51°04' W 128°58'5306.7
2019-Jun-14 11:00N 51°00' W 128°54'1632.1 310 / 141018.110.8 11.510.615.2
2019-Jun-14 10:31N 51°14' W 129°06'1121.1
2019-Jun-14 10:00N 51°23' W 129°13'1121.7
2019-Jun-14 09:30N 51°33' W 129°21'1121.8
2019-Jun-14 09:00N 51°42' W 129°29'1122.4
2019-Jun-14 08:31N 51°53' W 129°37'1122.3
2019-Jun-14 08:00N 52°03' W 129°45'1122.4
2019-Jun-14 07:30N 52°13' W 129°53'1822.1
2019-Jun-14 06:42N 52°29' W 130°05'422.0
2019-Jun-14 06:30N 52°33' W 130°08'1621.8
2019-Jun-14 05:47N 52°47' W 130°19'2321.3
2019-Jun-14 04:43N 53°08' W 130°35'521.3
2019-Jun-14 04:30N 53°12' W 130°38'1121.4
2019-Jun-14 04:01N 53°21' W 130°45'1121.1
2019-Jun-14 03:30N 53°31' W 130°51'1121.5
2019-Jun-14 03:00N 53°42' W 130°54'1121.9
2019-Jun-14 02:30N 53°53' W 130°57'1122.2
2019-Jun-14 02:00N 54°04' W 130°60'1021.0
2019-Jun-14 01:30N 54°14' W 131°04'815.9
2019-Jun-14 01:01N 54°21' W 131°08'815.3
2019-Jun-14 00:30N 54°28' W 131°16'815.1
2019-Jun-14 00:00N 54°34' W 131°23'815.2
2019-Jun-13 23:30N 54°41' W 131°30'1017.7
2019-Jun-13 22:55N 54°49' W 131°39'43 4.0
2019-Jun-13 12:00N 55°30' W 132°06'218 6.7 350 / 161014.310.8 11.3 9.014.7
2019-Jun-12 03:26N 58°09' W 136°38'1112.3
2019-Jun-12 02:34N 58°17' W 136°24'111.7
2019-Jun-12 02:26N 58°18' W 136°21'1112.0
2019-Jun-12 01:30N 58°21' W 136°01'510.0
2019-Jun-12 01:01N 58°26' W 135°59'5 9.3
2019-Jun-12 00:30N 58°30' W 136°04'713.2
2019-Jun-12 00:00N 58°37' W 136°03'714.7
2019-Jun-11 23:31N 58°43' W 136°10'816.7
2019-Jun-11 23:00N 58°47' W 136°24'9 1.7
2019-Jun-11 17:51N 58°53' W 136°37'10 7.6
2019-Jun-11 16:35N 58°47' W 136°23'212.1
2019-Jun-11 16:28N 58°46' W 136°20'818.3
2019-Jun-11 16:00N 58°40' W 136°10'816.9
2019-Jun-11 15:30N 58°32' W 136°04'713.5
2019-Jun-11 15:00N 58°26' W 135°58'3215.2
2019-Jun-11 15:00N 58°24' W 135°54'5 9.5 080 / 51016.2 2.2 11.610.211.7
2019-Jun-11 14:30N 58°19' W 135°55'612.8
2019-Jun-11 14:00N 58°18' W 135°43'6540.6
2019-Jun-11 14:00N 58°12' W 135°42'713.8 130 / 131016.3 5.4 12.710.912.5
2019-Jun-11 13:29N 58°15' W 135°30'714.5
2019-Jun-11 13:00N 58°13' W 135°18'25 6.3
2019-Jun-11 09:00N 58°12' W 134°30'73 4.0 110 / 141017.3 0.5 11.510.710.7
2019-Jun-10 15:00N 57°00' W 134°12'1919.2 090 / 131019.4 0.5 9.7 9.412.8
2019-Jun-10 14:00N 56°42' W 134°24'1818.0 350 / 101019.7 0.3 9.1 8.8 8.5
2019-Jun-10 13:00N 56°24' W 134°24'2424.0 100 / 131019.5 0.3 10.0 9.7 9.0
2019-Jun-10 12:00N 56°00' W 134°24'32619.2 150 / 151018.9 0.3 10.2 9.9 9.1
2019-Jun-09 19:00N 51°12' W 130°06'6421.2 170 / 251023.3 5.4 13.211.411.2
2019-Jun-09 16:00N 50°24' W 129°00'514.5 150 / 181027.2 5.4 11.4 9.311.5
2019-Jun-09 15:41N 50°23' W 128°53'3923.2
2019-Jun-09 14:00N 49°54' W 128°12'6665.8 200 / 161028.7 5.4 10.8 8.911.7
2019-Jun-09 13:00N 49°12' W 126°54'0 0.0 210 / 81028.6 2.2 11.2 8.614.3
2019-Jun-09 11:00N 49°12' W 126°54'4 9.8 290 / 81029.2 5.4 11.8 9.914.6
2019-Jun-09 10:35N 49°11' W 126°48'521.4
2019-Jun-09 10:20N 49°08' W 126°42'721.5
2019-Jun-09 10:00N 49°04' W 126°33'1121.2
2019-Jun-09 09:30N 48°59' W 126°19'1020.8
2019-Jun-09 09:01N 48°53' W 126°05'1020.5
2019-Jun-09 08:31N 48°48' W 125°52'1020.7
2019-Jun-09 08:01N 48°44' W 125°37'1121.1
2019-Jun-09 07:31N 48°41' W 125°22'1121.4
2019-Jun-09 07:01N 48°37' W 125°07'1121.6
2019-Jun-09 06:31N 48°33' W 124°52'1121.2
2019-Jun-09 06:01N 48°29' W 124°37'1020.9
2019-Jun-09 05:31N 48°25' W 124°23'1020.4
2019-Jun-09 05:01N 48°21' W 124°08'2019.6
2019-Jun-09 04:00N 48°16' W 123°40'2114.6
2019-Jun-09 02:35N 48°12' W 123°09'1219.5
2019-Jun-09 01:58N 48°12' W 122°51'817.0
2019-Jun-09 01:30N 48°08' W 122°41'918.4
2019-Jun-09 01:00N 47°59' W 122°35'1019.3
2019-Jun-09 00:30N 47°51' W 122°28'1019.9
2019-Jun-09 00:00N 47°41' W 122°27'5 9.4
2019-Jun-08 23:31N 47°37' W 122°23'0 0.6
2019-Jun-08 22:58N 47°38' W 122°23'0 0.0
2019-Jun-08 22:30N 47°38' W 122°23'0 0.0
2019-Jun-08 21:57N 47°38' W 122°23'0 0.0
2019-Jun-08 21:30N 47°38' W 122°23'0 0.0
2019-Jun-08 20:45N 47°38' W 122°23'0 0.0
2019-Jun-08 20:27N 47°38' W 122°23'0 0.0
2019-Jun-08 19:53N 47°38' W 122°23'0 0.0
2019-Jun-08 19:29N 47°38' W 122°23'0 0.0
2019-Jun-08 18:57N 47°38' W 122°23'0 0.0
2019-Jun-08 18:26N 47°38' W 122°23'0 0.0
2019-Jun-08 17:53N 47°38' W 122°23'0 0.0
2019-Jun-08 17:29N 47°38' W 122°23'0 0.0
2019-Jun-08 16:59N 47°38' W 122°23'0 0.0
2019-Jun-08 16:29N 47°38' W 122°23'4 7.7
2019-Jun-08 16:00N 47°36' W 122°18'424.4 240 / 71027.710.8 16.410.511.3
2019-Jun-08 15:50N 47°38' W 122°23'0 0.0
2019-Jun-08 15:29N 47°38' W 122°23'0 0.0
2019-Jun-08 14:59N 47°38' W 122°23'0 0.0
2019-Jun-08 14:29N 47°38' W 122°23'0 0.0
2019-Jun-08 13:56N 47°38' W 122°23'0 0.0
2019-Jun-08 13:27N 47°38' W 122°23'0 0.0
2019-Jun-08 12:57N 47°38' W 122°23'0 0.1
2019-Jun-08 12:30N 47°38' W 122°23'2 4.2
2019-Jun-08 12:01N 47°38' W 122°26'510.7
2019-Jun-08 11:30N 47°43' W 122°28'713.2
2019-Jun-08 11:01N 47°49' W 122°28'714.7
2019-Jun-08 10:30N 47°56' W 122°32'815.3
2019-Jun-08 10:00N 48°02' W 122°39'1014.5
2019-Jun-08 09:19N 48°11' W 122°47'816.3
2019-Jun-08 08:50N 48°12' W 122°59'616.5
2019-Jun-08 08:29N 48°12' W 123°08'916.3
2019-Jun-08 07:57N 48°10' W 123°21'611.3
2019-Jun-08 07:27N 48°12' W 123°29'918.6
2019-Jun-08 06:58N 48°20' W 123°26'4 8.6
2019-Jun-08 06:30N 48°24' W 123°24'1 1.9
2019-Jun-08 06:00N 48°25' W 123°23'0 0.0
2019-Jun-08 05:30N 48°25' W 123°23'0 0.0
2019-Jun-08 05:00N 48°25' W 123°23'0 0.0
2019-Jun-08 04:30N 48°25' W 123°23'0 0.0
2019-Jun-08 04:00N 48°25' W 123°23'0 0.0
2019-Jun-08 03:30N 48°25' W 123°23'0 0.0
2019-Jun-08 03:00N 48°25' W 123°23'0 0.0
2019-Jun-08 02:30N 48°25' W 123°23'0 0.0
2019-Jun-08 01:58N 48°25' W 123°23'0 0.0
2019-Jun-08 01:28N 48°25' W 123°23'0 0.0
2019-Jun-08 01:00N 48°25' W 123°23'3 6.8
2019-Jun-08 00:30N 48°22' W 123°24'916.9
2019-Jun-08 00:00N 48°14' W 123°29'1122.2
2019-Jun-07 23:30N 48°14' W 123°46'1121.5
2019-Jun-07 22:59N 48°16' W 124°02'1122.1
2019-Jun-07 22:30N 48°20' W 124°17'1021.0
2019-Jun-07 22:00N 48°25' W 124°31'1019.7
2019-Jun-07 21:31N 48°29' W 124°44'1019.3
2019-Jun-07 21:01N 48°29' W 124°59'918.8
2019-Jun-07 20:30N 48°30' W 125°13'1020.7
2019-Jun-07 20:00N 48°35' W 125°27'1121.3
2019-Jun-07 19:30N 48°40' W 125°41'1020.9
2019-Jun-07 19:01N 48°46' W 125°54'1020.6
2019-Jun-07 18:30N 48°51' W 126°08'1020.6
2019-Jun-07 18:01N 48°57' W 126°20'1020.8
2019-Jun-07 17:31N 49°04' W 126°33'1121.0
2019-Jun-07 17:00N 49°10' W 126°46'6120.4
2019-Jun-07 14:00N 49°48' W 128°00'3225.7 330 / 111015.610.8 10.8 7.815.8
2019-Jun-07 12:46N 50°15' W 128°26'621.6
2019-Jun-07 12:30N 50°20' W 128°29'1121.3
2019-Jun-07 12:00N 50°30' W 128°34'7519.6
2019-Jun-07 12:00N 50°24' W 128°30'1736.0 300 / 41015.110.8 9.5 8.114.6
2019-Jun-07 11:30N 50°40' W 128°40'1122.1
2019-Jun-07 11:00N 50°50' W 128°46'4241.1
2019-Jun-07 11:00N 50°48' W 128°42'1530.0 050 / 41014.810.8 10.3 7.515.5
2019-Jun-07 10:30N 51°00' W 128°55'1121.8
2019-Jun-07 10:00N 51°10' W 129°03'1121.1
2019-Jun-07 09:30N 51°19' W 129°10'1021.0
2019-Jun-07 09:00N 51°29' W 129°18'6379.8
2019-Jun-07 09:00N 51°24' W 129°12'1633.3 100 / 51014.510.8 10.5 7.4 9.5
2019-Jun-07 08:30N 51°38' W 129°26'1121.1
2019-Jun-07 08:00N 51°47' W 129°33'1121.5
2019-Jun-07 07:30N 51°57' W 129°41'1121.7
2019-Jun-07 06:58N 52°07' W 129°48'1022.2
2019-Jun-07 06:30N 52°17' W 129°56'5622.0
2019-Jun-07 03:57N 53°08' W 130°35'1022.2
2019-Jun-07 03:29N 53°17' W 130°42'1122.0
2019-Jun-07 03:00N 53°27' W 130°49'1122.0
2019-Jun-07 02:30N 53°38' W 130°54'1121.7
2019-Jun-07 02:01N 53°48' W 130°58'1121.2
2019-Jun-07 01:30N 53°58' W 131°01'1121.7
2019-Jun-07 01:00N 54°09' W 131°01'1121.7
2019-Jun-07 00:30N 54°20' W 131°07'1122.3
2019-Jun-07 00:00N 54°29' W 131°17'1122.4
2019-Jun-06 23:30N 54°39' W 131°27'1122.7
2019-Jun-06 23:00N 54°48' W 131°38'1121.4
2019-Jun-06 22:30N 54°59' W 131°41'  

Dump ship's entire track history